sensor_id;sensor_type;location;lat;lon;timestamp;temperature;humidity
22838;DHT22;11585;51.450;-0.240;2023-04-24T00:00:55;11.40;99.90
22838;DHT22;11585;51.450;-0.240;2023-04-24T00:03:26;11.30;99.90
22838;DHT22;11585;51.450;-0.240;2023-04-24T00:05:54;11.30;99.90
22838;DHT22;11585;51.450;-0.240;2023-04-24T00:18:25;11.20;99.90
22838;DHT22;11585;51.450;-0.240;2023-04-24T00:20:50;11.20;99.90
22838;DHT22;11585;51.450;-0.240;2023-04-24T00:23:16;11.20;99.90
22838;DHT22;11585;51.450;-0.240;2023-04-24T00:25:42;11.20;99.90
22838;DHT22;11585;51.450;-0.240;2023-04-24T00:28:08;11.20;99.90
22838;DHT22;11585;51.450;-0.240;2023-04-24T00:30:34;11.20;99.90
22838;DHT22;11585;51.450;-0.240;2023-04-24T00:33:00;11.20;99.90
22838;DHT22;11585;51.450;-0.240;2023-04-24T00:35:25;11.20;99.90
22838;DHT22;11585;51.450;-0.240;2023-04-24T00:41:13;11.20;99.90
22838;DHT22;11585;51.450;-0.240;2023-04-24T00:43:39;11.20;99.90
22838;DHT22;11585;51.450;-0.240;2023-04-24T00:46:05;11.10;99.90
22838;DHT22;11585;51.450;-0.240;2023-04-24T00:51:53;11.20;99.90
22838;DHT22;11585;51.450;-0.240;2023-04-24T00:54:19;11.10;99.90
22838;DHT22;11585;51.450;-0.240;2023-04-24T00:56:45;11.10;99.90
22838;DHT22;11585;51.450;-0.240;2023-04-24T01:02:33;11.10;99.90
22838;DHT22;11585;51.450;-0.240;2023-04-24T01:05:00;11.10;99.90
22838;DHT22;11585;51.450;-0.240;2023-04-24T01:10:15;11.10;99.90
22838;DHT22;11585;51.450;-0.240;2023-04-24T01:12:42;11.10;99.90
22838;DHT22;11585;51.450;-0.240;2023-04-24T01:15:09;11.10;99.90
22838;DHT22;11585;51.450;-0.240;2023-04-24T01:24:19;11.10;99.90
22838;DHT22;11585;51.450;-0.240;2023-04-24T01:26:46;11.10;99.90
22838;DHT22;11585;51.450;-0.240;2023-04-24T01:32:33;11.10;99.90
22838;DHT22;11585;51.450;-0.240;2023-04-24T01:35:00;11.10;99.90
22838;DHT22;11585;51.450;-0.240;2023-04-24T01:37:26;11.10;99.90
22838;DHT22;11585;51.450;-0.240;2023-04-24T01:39:52;11.10;99.90
22838;DHT22;11585;51.450;-0.240;2023-04-24T01:42:18;11.10;99.90
22838;DHT22;11585;51.450;-0.240;2023-04-24T01:44:47;11.10;99.90
22838;DHT22;11585;51.450;-0.240;2023-04-24T01:47:13;11.10;99.90
22838;DHT22;11585;51.450;-0.240;2023-04-24T01:49:39;11.10;99.90
22838;DHT22;11585;51.450;-0.240;2023-04-24T01:52:05;11.10;99.90
22838;DHT22;11585;51.450;-0.240;2023-04-24T01:54:30;11.20;99.90
22838;DHT22;11585;51.450;-0.240;2023-04-24T01:56:58;11.00;99.90
22838;DHT22;11585;51.450;-0.240;2023-04-24T02:02:52;11.10;99.90
22838;DHT22;11585;51.450;-0.240;2023-04-24T02:05:17;11.00;99.90
22838;DHT22;11585;51.450;-0.240;2023-04-24T02:11:09;11.00;99.90
22838;DHT22;11585;51.450;-0.240;2023-04-24T02:13:34;11.00;99.90
22838;DHT22;11585;51.450;-0.240;2023-04-24T02:16:00;11.00;99.90
22838;DHT22;11585;51.450;-0.240;2023-04-24T02:21:48;11.00;99.90
22838;DHT22;11585;51.450;-0.240;2023-04-24T02:24:13;11.20;99.90
22838;DHT22;11585;51.450;-0.240;2023-04-24T02:26:39;11.00;99.90
22838;DHT22;11585;51.450;-0.240;2023-04-24T02:32:09;11.00;99.90
22838;DHT22;11585;51.450;-0.240;2023-04-24T02:34:37;11.00;99.90
22838;DHT22;11585;51.450;-0.240;2023-04-24T02:37:03;11.10;99.90
22838;DHT22;11585;51.450;-0.240;2023-04-24T02:39:48;11.00;99.90
22838;DHT22;11585;51.450;-0.240;2023-04-24T02:42:14;11.00;99.90
22838;DHT22;11585;51.450;-0.240;2023-04-24T02:44:40;10.90;99.90
22838;DHT22;11585;51.450;-0.240;2023-04-24T02:47:06;11.10;99.90
22838;DHT22;11585;51.450;-0.240;2023-04-24T02:49:34;11.10;99.90
22838;DHT22;11585;51.450;-0.240;2023-04-24T02:51:59;10.90;99.90
22838;DHT22;11585;51.450;-0.240;2023-04-24T02:54:25;10.90;99.90
22838;DHT22;11585;51.450;-0.240;2023-04-24T02:56:51;10.90;99.90
22838;DHT22;11585;51.450;-0.240;2023-04-24T03:02:40;10.90;99.90
22838;DHT22;11585;51.450;-0.240;2023-04-24T03:05:06;10.90;99.90
22838;DHT22;11585;51.450;-0.240;2023-04-24T03:11:00;10.90;99.90
22838;DHT22;11585;51.450;-0.240;2023-04-24T03:13:28;10.90;99.90
22838;DHT22;11585;51.450;-0.240;2023-04-24T03:16:40;10.80;99.90
22838;DHT22;11585;51.450;-0.240;2023-04-24T03:22:33;10.80;99.90
22838;DHT22;11585;51.450;-0.240;2023-04-24T03:25:01;10.80;99.90
22838;DHT22;11585;51.450;-0.240;2023-04-24T03:31:10;10.80;99.90
22838;DHT22;11585;51.450;-0.240;2023-04-24T03:40:50;10.80;99.90
22838;DHT22;11585;51.450;-0.240;2023-04-24T03:43:16;10.70;99.90
22838;DHT22;11585;51.450;-0.240;2023-04-24T03:45:42;11.10;99.90
22838;DHT22;11585;51.450;-0.240;2023-04-24T03:51:32;10.80;99.90
22838;DHT22;11585;51.450;-0.240;2023-04-24T03:53:58;10.70;99.90
22838;DHT22;11585;51.450;-0.240;2023-04-24T03:56:23;10.80;99.90
22838;DHT22;11585;51.450;-0.240;2023-04-24T04:02:11;10.70;99.90
22838;DHT22;11585;51.450;-0.240;2023-04-24T04:11:05;10.70;99.90
22838;DHT22;11585;51.450;-0.240;2023-04-24T04:13:57;10.70;99.90
22838;DHT22;11585;51.450;-0.240;2023-04-24T04:16:33;10.70;99.90
22838;DHT22;11585;51.450;-0.240;2023-04-24T04:22:41;10.70;99.90
22838;DHT22;11585;51.450;-0.240;2023-04-24T04:25:07;10.70;99.90
22838;DHT22;11585;51.450;-0.240;2023-04-24T04:30:38;10.70;99.90
22838;DHT22;11585;51.450;-0.240;2023-04-24T04:33:04;10.70;99.90
22838;DHT22;11585;51.450;-0.240;2023-04-24T04:35:29;10.70;99.90
22838;DHT22;11585;51.450;-0.240;2023-04-24T04:41:17;10.60;99.90
22838;DHT22;11585;51.450;-0.240;2023-04-24T04:43:43;10.70;99.90
22838;DHT22;11585;51.450;-0.240;2023-04-24T04:46:09;10.70;99.90
22838;DHT22;11585;51.450;-0.240;2023-04-24T04:55:20;10.70;99.90
22838;DHT22;11585;51.450;-0.240;2023-04-24T04:58:09;10.60;99.90
22838;DHT22;11585;51.450;-0.240;2023-04-24T05:00:34;10.60;99.90
22838;DHT22;11585;51.450;-0.240;2023-04-24T05:03:02;10.60;99.90
22838;DHT22;11585;51.450;-0.240;2023-04-24T05:05:28;10.60;99.90
22838;DHT22;11585;51.450;-0.240;2023-04-24T05:11:19;10.60;99.90
22838;DHT22;11585;51.450;-0.240;2023-04-24T05:17:12;10.60;99.90
22838;DHT22;11585;51.450;-0.240;2023-04-24T05:23:00;10.60;99.90
22838;DHT22;11585;51.450;-0.240;2023-04-24T05:25:26;10.60;99.90
22838;DHT22;11585;51.450;-0.240;2023-04-24T05:31:13;10.60;99.90
22838;DHT22;11585;51.450;-0.240;2023-04-24T05:33:39;10.60;99.90
22838;DHT22;11585;51.450;-0.240;2023-04-24T05:36:06;10.60;99.90
22838;DHT22;11585;51.450;-0.240;2023-04-24T05:41:56;10.60;99.90
22838;DHT22;11585;51.450;-0.240;2023-04-24T05:44:26;10.60;99.90
22838;DHT22;11585;51.450;-0.240;2023-04-24T05:46:55;10.60;99.90
22838;DHT22;11585;51.450;-0.240;2023-04-24T05:52:53;10.60;99.90
22838;DHT22;11585;51.450;-0.240;2023-04-24T05:55:26;10.60;99.90
22838;DHT22;11585;51.450;-0.240;2023-04-24T06:01:14;10.60;99.90
22838;DHT22;11585;51.450;-0.240;2023-04-24T06:03:41;10.60;99.90
22838;DHT22;11585;51.450;-0.240;2023-04-24T06:06:07;10.60;99.90
22838;DHT22;11585;51.450;-0.240;2023-04-24T06:11:55;10.60;99.90
22838;DHT22;11585;51.450;-0.240;2023-04-24T06:14:22;10.70;99.90
22838;DHT22;11585;51.450;-0.240;2023-04-24T06:16:47;10.80;99.90
22838;DHT22;11585;51.450;-0.240;2023-04-24T06:22:35;10.60;99.90
22838;DHT22;11585;51.450;-0.240;2023-04-24T06:28:23;10.50;99.90
22838;DHT22;11585;51.450;-0.240;2023-04-24T06:30:48;10.60;99.90
22838;DHT22;11585;51.450;-0.240;2023-04-24T06:33:14;10.70;99.90
22838;DHT22;11585;51.450;-0.240;2023-04-24T06:35:40;10.70;99.90
22838;DHT22;11585;51.450;-0.240;2023-04-24T06:41:28;10.70;99.90
22838;DHT22;11585;51.450;-0.240;2023-04-24T06:43:54;10.70;99.90
22838;DHT22;11585;51.450;-0.240;2023-04-24T06:46:20;10.70;99.90
22838;DHT22;11585;51.450;-0.240;2023-04-24T06:52:13;10.70;99.90
22838;DHT22;11585;51.450;-0.240;2023-04-24T06:54:44;10.70;99.90
22838;DHT22;11585;51.450;-0.240;2023-04-24T07:00:43;10.70;99.90
22838;DHT22;11585;51.450;-0.240;2023-04-24T07:03:11;10.70;99.90
22838;DHT22;11585;51.450;-0.240;2023-04-24T07:12:33;10.80;99.90
22838;DHT22;11585;51.450;-0.240;2023-04-24T07:15:14;10.70;99.90
22838;DHT22;11585;51.450;-0.240;2023-04-24T07:17:42;10.70;99.90
22838;DHT22;11585;51.450;-0.240;2023-04-24T07:20:12;10.70;99.90
22838;DHT22;11585;51.450;-0.240;2023-04-24T07:22:39;10.70;99.90
22838;DHT22;11585;51.450;-0.240;2023-04-24T07:25:06;10.70;99.90
22838;DHT22;11585;51.450;-0.240;2023-04-24T07:30:54;10.80;99.90
22838;DHT22;11585;51.450;-0.240;2023-04-24T07:33:20;10.70;99.90
22838;DHT22;11585;51.450;-0.240;2023-04-24T07:35:46;10.80;99.90
22838;DHT22;11585;51.450;-0.240;2023-04-24T07:41:18;10.80;99.90
22838;DHT22;11585;51.450;-0.240;2023-04-24T07:43:44;10.80;99.90
22838;DHT22;11585;51.450;-0.240;2023-04-24T07:46:10;10.80;99.90
22838;DHT22;11585;51.450;-0.240;2023-04-24T07:48:36;10.80;99.90
22838;DHT22;11585;51.450;-0.240;2023-04-24T07:51:02;11.00;99.90
22838;DHT22;11585;51.450;-0.240;2023-04-24T07:53:27;10.90;99.90
22838;DHT22;11585;51.450;-0.240;2023-04-24T07:55:55;10.90;99.90
22838;DHT22;11585;51.450;-0.240;2023-04-24T07:58:22;10.90;99.90
22838;DHT22;11585;51.450;-0.240;2023-04-24T08:00:47;10.90;99.90
22838;DHT22;11585;51.450;-0.240;2023-04-24T08:03:13;10.90;99.90
22838;DHT22;11585;51.450;-0.240;2023-04-24T08:05:39;10.90;99.90
22838;DHT22;11585;51.450;-0.240;2023-04-24T08:08:07;11.00;99.90
22838;DHT22;11585;51.450;-0.240;2023-04-24T08:10:32;11.00;99.90
22838;DHT22;11585;51.450;-0.240;2023-04-24T08:12:58;11.00;99.90
22838;DHT22;11585;51.450;-0.240;2023-04-24T08:15:24;11.00;99.90
22838;DHT22;11585;51.450;-0.240;2023-04-24T08:17:50;11.00;99.90
22838;DHT22;11585;51.450;-0.240;2023-04-24T08:20:16;11.00;99.90
22838;DHT22;11585;51.450;-0.240;2023-04-24T08:22:42;11.10;99.90
22838;DHT22;11585;51.450;-0.240;2023-04-24T08:25:09;11.10;99.90
22838;DHT22;11585;51.450;-0.240;2023-04-24T08:27:35;11.20;99.90
22838;DHT22;11585;51.450;-0.240;2023-04-24T08:30:05;11.10;99.90
22838;DHT22;11585;51.450;-0.240;2023-04-24T08:32:30;11.10;99.90
22838;DHT22;11585;51.450;-0.240;2023-04-24T08:34:57;11.20;99.90
22838;DHT22;11585;51.450;-0.240;2023-04-24T08:37:23;11.20;99.90
22838;DHT22;11585;51.450;-0.240;2023-04-24T08:39:49;11.10;99.90
22838;DHT22;11585;51.450;-0.240;2023-04-24T08:42:17;11.20;99.90
22838;DHT22;11585;51.450;-0.240;2023-04-24T08:44:43;11.20;99.90
22838;DHT22;11585;51.450;-0.240;2023-04-24T08:47:10;11.20;99.90
22838;DHT22;11585;51.450;-0.240;2023-04-24T08:49:37;11.30;99.90
22838;DHT22;11585;51.450;-0.240;2023-04-24T08:52:05;11.30;99.90
22838;DHT22;11585;51.450;-0.240;2023-04-24T08:54:31;11.30;99.90
22838;DHT22;11585;51.450;-0.240;2023-04-24T08:57:01;11.60;99.90
22838;DHT22;11585;51.450;-0.240;2023-04-24T08:59:28;11.30;99.90
22838;DHT22;11585;51.450;-0.240;2023-04-24T09:01:55;11.50;99.90
22838;DHT22;11585;51.450;-0.240;2023-04-24T09:04:22;11.30;99.90
22838;DHT22;11585;51.450;-0.240;2023-04-24T09:06:54;11.30;99.90
22838;DHT22;11585;51.450;-0.240;2023-04-24T09:09:21;11.40;99.90
22838;DHT22;11585;51.450;-0.240;2023-04-24T09:11:49;11.30;99.90
22838;DHT22;11585;51.450;-0.240;2023-04-24T09:14:16;11.40;99.90
22838;DHT22;11585;51.450;-0.240;2023-04-24T09:16:42;11.70;99.90
22838;DHT22;11585;51.450;-0.240;2023-04-24T09:19:08;11.40;99.90
22838;DHT22;11585;51.450;-0.240;2023-04-24T09:21:35;11.40;99.90
22838;DHT22;11585;51.450;-0.240;2023-04-24T09:24:04;11.40;99.90
22838;DHT22;11585;51.450;-0.240;2023-04-24T09:26:31;11.40;99.90
22838;DHT22;11585;51.450;-0.240;2023-04-24T09:28:58;11.40;99.90
22838;DHT22;11585;51.450;-0.240;2023-04-24T09:31:27;11.50;99.90
22838;DHT22;11585;51.450;-0.240;2023-04-24T09:34:04;11.50;99.90
22838;DHT22;11585;51.450;-0.240;2023-04-24T09:36:37;11.50;99.90
22838;DHT22;11585;51.450;-0.240;2023-04-24T09:39:05;11.50;99.90
22838;DHT22;11585;51.450;-0.240;2023-04-24T09:41:33;11.50;99.90
22838;DHT22;11585;51.450;-0.240;2023-04-24T09:44:22;11.50;99.90
22838;DHT22;11585;51.450;-0.240;2023-04-24T09:46:57;11.50;99.90
22838;DHT22;11585;51.450;-0.240;2023-04-24T09:49:27;11.50;99.90
22838;DHT22;11585;51.450;-0.240;2023-04-24T09:52:05;11.60;99.90
22838;DHT22;11585;51.450;-0.240;2023-04-24T09:54:31;11.60;99.90
22838;DHT22;11585;51.450;-0.240;2023-04-24T09:56:56;11.60;99.90
22838;DHT22;11585;51.450;-0.240;2023-04-24T09:59:22;11.60;99.90
22838;DHT22;11585;51.450;-0.240;2023-04-24T10:01:48;11.60;99.90
22838;DHT22;11585;51.450;-0.240;2023-04-24T10:04:23;11.60;99.90
22838;DHT22;11585;51.450;-0.240;2023-04-24T10:06:51;11.60;99.90
22838;DHT22;11585;51.450;-0.240;2023-04-24T10:09:19;11.60;99.90
22838;DHT22;11585;51.450;-0.240;2023-04-24T10:11:47;11.60;99.90
22838;DHT22;11585;51.450;-0.240;2023-04-24T10:14:17;11.60;99.90
22838;DHT22;11585;51.450;-0.240;2023-04-24T10:16:44;11.60;99.90
22838;DHT22;11585;51.450;-0.240;2023-04-24T10:19:13;11.70;99.90
22838;DHT22;11585;51.450;-0.240;2023-04-24T10:21:40;11.70;99.90
22838;DHT22;11585;51.450;-0.240;2023-04-24T10:24:16;11.70;99.90
22838;DHT22;11585;51.450;-0.240;2023-04-24T10:26:42;11.70;99.90
22838;DHT22;11585;51.450;-0.240;2023-04-24T10:29:11;11.70;99.90
22838;DHT22;11585;51.450;-0.240;2023-04-24T10:31:38;11.70;99.90
22838;DHT22;11585;51.450;-0.240;2023-04-24T10:34:09;11.70;99.90
22838;DHT22;11585;51.450;-0.240;2023-04-24T10:36:38;11.90;99.90
22838;DHT22;11585;51.450;-0.240;2023-04-24T10:39:09;11.80;99.90
22838;DHT22;11585;51.450;-0.240;2023-04-24T10:41:37;11.80;99.90
22838;DHT22;11585;51.450;-0.240;2023-04-24T10:44:14;11.80;99.90
22838;DHT22;11585;51.450;-0.240;2023-04-24T10:46:54;11.80;99.90
22838;DHT22;11585;51.450;-0.240;2023-04-24T10:49:30;11.80;99.90
22838;DHT22;11585;51.450;-0.240;2023-04-24T10:52:01;11.90;99.90
22838;DHT22;11585;51.450;-0.240;2023-04-24T11:00:10;11.90;99.90
22838;DHT22;11585;51.450;-0.240;2023-04-24T11:02:38;11.90;99.90
22838;DHT22;11585;51.450;-0.240;2023-04-24T11:05:06;11.90;99.90
22838;DHT22;11585;51.450;-0.240;2023-04-24T11:10:56;12.00;99.90
22838;DHT22;11585;51.450;-0.240;2023-04-24T11:13:27;12.00;99.90
22838;DHT22;11585;51.450;-0.240;2023-04-24T11:16:11;12.00;99.90
22838;DHT22;11585;51.450;-0.240;2023-04-24T11:18:39;12.20;99.90
22838;DHT22;11585;51.450;-0.240;2023-04-24T11:21:12;12.10;99.90
22838;DHT22;11585;51.450;-0.240;2023-04-24T11:23:39;12.20;99.90
22838;DHT22;11585;51.450;-0.240;2023-04-24T11:26:18;12.10;99.90
22838;DHT22;11585;51.450;-0.240;2023-04-24T11:28:46;12.10;99.90
22838;DHT22;11585;51.450;-0.240;2023-04-24T11:31:35;12.20;99.90
22838;DHT22;11585;51.450;-0.240;2023-04-24T11:34:12;12.20;99.90
22838;DHT22;11585;51.450;-0.240;2023-04-24T11:36:42;12.20;99.90
22838;DHT22;11585;51.450;-0.240;2023-04-24T11:39:08;12.30;99.90
22838;DHT22;11585;51.450;-0.240;2023-04-24T11:41:34;12.30;99.90
22838;DHT22;11585;51.450;-0.240;2023-04-24T11:44:01;12.30;99.90
22838;DHT22;11585;51.450;-0.240;2023-04-24T11:46:29;12.30;99.90
22838;DHT22;11585;51.450;-0.240;2023-04-24T11:48:58;12.40;99.90
22838;DHT22;11585;51.450;-0.240;2023-04-24T11:51:27;12.40;99.90
22838;DHT22;11585;51.450;-0.240;2023-04-24T11:53:54;12.40;99.90
22838;DHT22;11585;51.450;-0.240;2023-04-24T11:56:31;12.50;99.90
22838;DHT22;11585;51.450;-0.240;2023-04-24T11:58:59;12.50;99.90
22838;DHT22;11585;51.450;-0.240;2023-04-24T12:01:27;12.60;99.90
22838;DHT22;11585;51.450;-0.240;2023-04-24T12:03:59;12.50;99.90
22838;DHT22;11585;51.450;-0.240;2023-04-24T12:06:26;12.60;99.90
22838;DHT22;11585;51.450;-0.240;2023-04-24T12:09:02;12.70;99.90
22838;DHT22;11585;51.450;-0.240;2023-04-24T12:11:30;12.70;99.90
22838;DHT22;11585;51.450;-0.240;2023-04-24T12:14:10;12.70;99.90
22838;DHT22;11585;51.450;-0.240;2023-04-24T12:16:42;12.80;99.90
22838;DHT22;11585;51.450;-0.240;2023-04-24T12:19:18;12.80;99.90
22838;DHT22;11585;51.450;-0.240;2023-04-24T12:21:59;12.80;99.90
22838;DHT22;11585;51.450;-0.240;2023-04-24T12:24:26;12.90;99.90
22838;DHT22;11585;51.450;-0.240;2023-04-24T12:26:52;12.90;99.90
22838;DHT22;11585;51.450;-0.240;2023-04-24T12:29:22;12.90;99.90
22838;DHT22;11585;51.450;-0.240;2023-04-24T12:31:49;13.00;99.90
22838;DHT22;11585;51.450;-0.240;2023-04-24T12:34:22;13.00;99.90
22838;DHT22;11585;51.450;-0.240;2023-04-24T12:36:49;13.00;99.90
22838;DHT22;11585;51.450;-0.240;2023-04-24T12:39:18;13.00;99.90
22838;DHT22;11585;51.450;-0.240;2023-04-24T12:41:57;13.00;99.90
22838;DHT22;11585;51.450;-0.240;2023-04-24T12:44:31;13.10;99.90
22838;DHT22;11585;51.450;-0.240;2023-04-24T12:47:00;13.10;99.90
22838;DHT22;11585;51.450;-0.240;2023-04-24T12:49:30;13.10;99.90
22838;DHT22;11585;51.450;-0.240;2023-04-24T12:51:56;13.10;99.90
22838;DHT22;11585;51.450;-0.240;2023-04-24T12:54:22;13.10;99.90
22838;DHT22;11585;51.450;-0.240;2023-04-24T12:56:48;13.20;99.90
22838;DHT22;11585;51.450;-0.240;2023-04-24T12:59:13;13.20;99.90
22838;DHT22;11585;51.450;-0.240;2023-04-24T13:01:40;13.20;99.90
22838;DHT22;11585;51.450;-0.240;2023-04-24T13:04:05;13.20;99.90
22838;DHT22;11585;51.450;-0.240;2023-04-24T13:06:31;13.20;99.90
22838;DHT22;11585;51.450;-0.240;2023-04-24T13:09:00;13.20;99.90
22838;DHT22;11585;51.450;-0.240;2023-04-24T13:11:29;13.20;99.90
22838;DHT22;11585;51.450;-0.240;2023-04-24T13:13:54;13.20;99.90
22838;DHT22;11585;51.450;-0.240;2023-04-24T13:16:20;13.20;99.90
22838;DHT22;11585;51.450;-0.240;2023-04-24T13:18:46;13.20;99.90
22838;DHT22;11585;51.450;-0.240;2023-04-24T13:21:12;13.30;99.90
22838;DHT22;11585;51.450;-0.240;2023-04-24T13:24:00;13.30;99.90
22838;DHT22;11585;51.450;-0.240;2023-04-24T13:26:26;13.30;99.90
22838;DHT22;11585;51.450;-0.240;2023-04-24T13:28:52;13.30;99.90
22838;DHT22;11585;51.450;-0.240;2023-04-24T13:31:18;13.30;99.90
22838;DHT22;11585;51.450;-0.240;2023-04-24T13:33:43;13.30;99.90
22838;DHT22;11585;51.450;-0.240;2023-04-24T13:36:09;13.40;99.90
22838;DHT22;11585;51.450;-0.240;2023-04-24T13:38:35;13.40;99.90
22838;DHT22;11585;51.450;-0.240;2023-04-24T13:41:01;13.40;99.90
22838;DHT22;11585;51.450;-0.240;2023-04-24T13:43:29;13.40;99.90
22838;DHT22;11585;51.450;-0.240;2023-04-24T13:45:55;13.40;99.90
22838;DHT22;11585;51.450;-0.240;2023-04-24T13:48:21;13.50;99.90
22838;DHT22;11585;51.450;-0.240;2023-04-24T13:50:47;13.60;99.90
22838;DHT22;11585;51.450;-0.240;2023-04-24T13:53:15;13.50;99.90
22838;DHT22;11585;51.450;-0.240;2023-04-24T13:55:41;13.50;99.90
22838;DHT22;11585;51.450;-0.240;2023-04-24T13:58:08;13.50;99.90
22838;DHT22;11585;51.450;-0.240;2023-04-24T14:00:34;13.50;99.90
22838;DHT22;11585;51.450;-0.240;2023-04-24T14:02:59;13.50;99.90
22838;DHT22;11585;51.450;-0.240;2023-04-24T14:05:26;13.50;99.90
22838;DHT22;11585;51.450;-0.240;2023-04-24T14:08:12;13.50;99.90
22838;DHT22;11585;51.450;-0.240;2023-04-24T14:10:38;13.60;99.90
22838;DHT22;11585;51.450;-0.240;2023-04-24T14:13:04;13.60;99.90
22838;DHT22;11585;51.450;-0.240;2023-04-24T14:15:29;13.60;99.90
22838;DHT22;11585;51.450;-0.240;2023-04-24T14:31:06;13.60;99.90
22838;DHT22;11585;51.450;-0.240;2023-04-24T14:33:33;13.60;99.90
22838;DHT22;11585;51.450;-0.240;2023-04-24T14:36:00;13.60;99.90
22838;DHT22;11585;51.450;-0.240;2023-04-24T14:41:50;13.60;99.90
22838;DHT22;11585;51.450;-0.240;2023-04-24T14:44:18;13.60;99.90
22838;DHT22;11585;51.450;-0.240;2023-04-24T14:46:44;13.60;99.90
22838;DHT22;11585;51.450;-0.240;2023-04-24T14:52:02;13.60;99.90
22838;DHT22;11585;51.450;-0.240;2023-04-24T14:54:30;13.60;99.90
22838;DHT22;11585;51.450;-0.240;2023-04-24T14:56:56;13.60;99.90
22838;DHT22;11585;51.450;-0.240;2023-04-24T15:02:48;13.60;99.90
22838;DHT22;11585;51.450;-0.240;2023-04-24T15:05:14;13.60;99.90
22838;DHT22;11585;51.450;-0.240;2023-04-24T15:11:02;13.40;99.90
22838;DHT22;11585;51.450;-0.240;2023-04-24T15:16:17;13.50;99.90
22838;DHT22;11585;51.450;-0.240;2023-04-24T15:18:50;13.50;99.90
22838;DHT22;11585;51.450;-0.240;2023-04-24T15:21:16;13.40;99.90
22838;DHT22;11585;51.450;-0.240;2023-04-24T15:23:41;13.40;99.90
22838;DHT22;11585;51.450;-0.240;2023-04-24T15:26:07;13.40;99.90
22838;DHT22;11585;51.450;-0.240;2023-04-24T15:28:33;13.30;99.90
22838;DHT22;11585;51.450;-0.240;2023-04-24T15:30:59;13.30;99.90
22838;DHT22;11585;51.450;-0.240;2023-04-24T15:33:24;13.20;99.90
22838;DHT22;11585;51.450;-0.240;2023-04-24T15:35:51;13.20;99.90
22838;DHT22;11585;51.450;-0.240;2023-04-24T15:38:17;13.10;99.90
22838;DHT22;11585;51.450;-0.240;2023-04-24T15:40:51;13.00;99.90
22838;DHT22;11585;51.450;-0.240;2023-04-24T15:43:20;13.00;99.90
22838;DHT22;11585;51.450;-0.240;2023-04-24T15:46:07;12.90;99.90
22838;DHT22;11585;51.450;-0.240;2023-04-24T15:48:35;12.80;99.90
22838;DHT22;11585;51.450;-0.240;2023-04-24T15:51:11;12.80;99.90
22838;DHT22;11585;51.450;-0.240;2023-04-24T15:54:02;12.70;99.90
22838;DHT22;11585;51.450;-0.240;2023-04-24T15:56:36;12.60;99.90
22838;DHT22;11585;51.450;-0.240;2023-04-24T15:59:17;12.60;99.90
22838;DHT22;11585;51.450;-0.240;2023-04-24T16:01:51;12.50;99.90
22838;DHT22;11585;51.450;-0.240;2023-04-24T16:05:05;12.50;99.90
22838;DHT22;11585;51.450;-0.240;2023-04-24T16:07:25;12.40;99.90
22838;DHT22;11585;51.450;-0.240;2023-04-24T16:09:59;12.40;99.90
22838;DHT22;11585;51.450;-0.240;2023-04-24T16:16:16;12.30;99.90
22838;DHT22;11585;51.450;-0.240;2023-04-24T16:19:19;12.20;99.90
22838;DHT22;11585;51.450;-0.240;2023-04-24T16:21:48;12.20;99.90
22838;DHT22;11585;51.450;-0.240;2023-04-24T16:24:22;12.10;99.90
22838;DHT22;11585;51.450;-0.240;2023-04-24T16:26:56;12.10;99.90
22838;DHT22;11585;51.450;-0.240;2023-04-24T16:29:53;12.10;99.90
22838;DHT22;11585;51.450;-0.240;2023-04-24T16:32:55;12.00;99.90
22838;DHT22;11585;51.450;-0.240;2023-04-24T16:35:44;12.00;99.90
22838;DHT22;11585;51.450;-0.240;2023-04-24T16:38:37;11.90;99.90
22838;DHT22;11585;51.450;-0.240;2023-04-24T16:41:36;11.90;99.90
22838;DHT22;11585;51.450;-0.240;2023-04-24T16:44:22;11.80;99.90
22838;DHT22;11585;51.450;-0.240;2023-04-24T16:47:30;11.80;99.90
22838;DHT22;11585;51.450;-0.240;2023-04-24T16:50:17;11.70;99.90
22838;DHT22;11585;51.450;-0.240;2023-04-24T16:52:57;11.70;99.90
22838;DHT22;11585;51.450;-0.240;2023-04-24T16:55:31;11.60;99.90
22838;DHT22;11585;51.450;-0.240;2023-04-24T16:58:27;11.60;99.90
22838;DHT22;11585;51.450;-0.240;2023-04-24T17:01:02;11.60;99.90
22838;DHT22;11585;51.450;-0.240;2023-04-24T17:03:39;11.50;99.90
22838;DHT22;11585;51.450;-0.240;2023-04-24T17:06:29;11.50;99.90
22838;DHT22;11585;51.450;-0.240;2023-04-24T17:09:42;11.40;99.90
22838;DHT22;11585;51.450;-0.240;2023-04-24T17:12:19;11.40;99.90
22838;DHT22;11585;51.450;-0.240;2023-04-24T17:14:48;11.40;99.90
22838;DHT22;11585;51.450;-0.240;2023-04-24T17:17:16;11.40;99.90
22838;DHT22;11585;51.450;-0.240;2023-04-24T17:19:53;11.40;99.90
22838;DHT22;11585;51.450;-0.240;2023-04-24T17:22:21;11.30;99.90
22838;DHT22;11585;51.450;-0.240;2023-04-24T17:24:49;11.30;99.90
22838;DHT22;11585;51.450;-0.240;2023-04-24T17:27:31;11.30;99.90
22838;DHT22;11585;51.450;-0.240;2023-04-24T17:29:58;11.20;99.90
22838;DHT22;11585;51.450;-0.240;2023-04-24T17:32:26;11.30;99.90
22838;DHT22;11585;51.450;-0.240;2023-04-24T17:34:52;11.30;99.90
22838;DHT22;11585;51.450;-0.240;2023-04-24T17:37:26;11.30;99.90
22838;DHT22;11585;51.450;-0.240;2023-04-24T17:39:52;11.30;99.90
22838;DHT22;11585;51.450;-0.240;2023-04-24T17:42:18;11.20;99.90
22838;DHT22;11585;51.450;-0.240;2023-04-24T17:44:55;11.20;99.90
22838;DHT22;11585;51.450;-0.240;2023-04-24T17:47:23;11.20;99.90
22838;DHT22;11585;51.450;-0.240;2023-04-24T17:49:59;11.20;99.90
22838;DHT22;11585;51.450;-0.240;2023-04-24T17:52:28;11.20;99.90
22838;DHT22;11585;51.450;-0.240;2023-04-24T17:54:53;11.20;99.90
22838;DHT22;11585;51.450;-0.240;2023-04-24T17:57:19;11.10;99.90
22838;DHT22;11585;51.450;-0.240;2023-04-24T17:59:45;11.10;99.90
22838;DHT22;11585;51.450;-0.240;2023-04-24T18:02:14;11.10;99.90
22838;DHT22;11585;51.450;-0.240;2023-04-24T18:04:42;11.10;99.90
22838;DHT22;11585;51.450;-0.240;2023-04-24T18:07:08;11.10;99.90
22838;DHT22;11585;51.450;-0.240;2023-04-24T18:09:35;11.10;99.90
22838;DHT22;11585;51.450;-0.240;2023-04-24T18:12:01;11.40;99.90
22838;DHT22;11585;51.450;-0.240;2023-04-24T18:14:27;11.00;99.90
22838;DHT22;11585;51.450;-0.240;2023-04-24T18:16:55;11.00;99.90
22838;DHT22;11585;51.450;-0.240;2023-04-24T18:19:22;11.00;99.90
22838;DHT22;11585;51.450;-0.240;2023-04-24T18:21:48;11.00;99.90
22838;DHT22;11585;51.450;-0.240;2023-04-24T18:24:16;11.10;99.90
22838;DHT22;11585;51.450;-0.240;2023-04-24T18:26:42;10.90;99.90
22838;DHT22;11585;51.450;-0.240;2023-04-24T18:32:13;10.80;99.90
22838;DHT22;11585;51.450;-0.240;2023-04-24T18:34:38;10.90;99.90
22838;DHT22;11585;51.450;-0.240;2023-04-24T18:37:04;10.90;99.90
22838;DHT22;11585;51.450;-0.240;2023-04-24T18:39:50;10.80;99.90
22838;DHT22;11585;51.450;-0.240;2023-04-24T18:42:18;10.80;99.90
22838;DHT22;11585;51.450;-0.240;2023-04-24T18:44:50;10.80;99.90
22838;DHT22;11585;51.450;-0.240;2023-04-24T18:50:35;10.80;99.90
22838;DHT22;11585;51.450;-0.240;2023-04-24T18:53:03;10.70;99.90